sensor_id;sensor_type;location;lat;lon;timestamp;pressure;altitude;pressure_sealevel;temperature;humidity
43147;BME280;28752;48.266;7.402;2023-02-01T00:01:11;100355.09;;;4.68;89.58
43147;BME280;28752;48.266;7.402;2023-02-01T00:03:37;100358.81;;;4.63;89.82
43147;BME280;28752;48.266;7.402;2023-02-01T00:06:05;100355.28;;;4.31;89.62
43147;BME280;28752;48.266;7.402;2023-02-01T00:08:30;100359.94;;;4.26;89.45
43147;BME280;28752;48.266;7.402;2023-02-01T00:11:09;100349.97;;;4.33;89.07
43147;BME280;28752;48.266;7.402;2023-02-01T00:13:37;100350.59;;;4.38;88.96
43147;BME280;28752;48.266;7.402;2023-02-01T00:16:08;100344.41;;;4.39;88.99
43147;BME280;28752;48.266;7.402;2023-02-01T00:18:34;100338.84;;;4.45;87.87
43147;BME280;28752;48.266;7.402;2023-02-01T00:21:00;100336.81;;;4.34;87.51
43147;BME280;28752;48.266;7.402;2023-02-01T00:23:25;100322.31;;;4.27;87.90
43147;BME280;28752;48.266;7.402;2023-02-01T00:25:51;100329.69;;;4.36;86.92
43147;BME280;28752;48.266;7.402;2023-02-01T00:28:16;100326.31;;;4.34;86.80
43147;BME280;28752;48.266;7.402;2023-02-01T00:30:42;100331.53;;;4.18;87.72
43147;BME280;28752;48.266;7.402;2023-02-01T00:33:07;100324.94;;;4.27;88.61
43147;BME280;28752;48.266;7.402;2023-02-01T00:35:36;100330.38;;;4.24;88.08
43147;BME280;28752;48.266;7.402;2023-02-01T00:38:01;100321.63;;;4.23;88.95
43147;BME280;28752;48.266;7.402;2023-02-01T00:40:27;100326.13;;;4.21;88.45
43147;BME280;28752;48.266;7.402;2023-02-01T00:42:52;100317.69;;;4.16;88.87
43147;BME280;28752;48.266;7.402;2023-02-01T00:45:18;100327.66;;;4.25;89.89
43147;BME280;28752;48.266;7.402;2023-02-01T00:47:43;100331.69;;;4.31;89.87
43147;BME280;28752;48.266;7.402;2023-02-01T00:50:09;100333.06;;;4.38;89.84
43147;BME280;28752;48.266;7.402;2023-02-01T00:52:34;100330.97;;;4.45;90.29
43147;BME280;28752;48.266;7.402;2023-02-01T00:55:00;100324.78;;;4.62;89.50
43147;BME280;28752;48.266;7.402;2023-02-01T00:57:25;100326.81;;;4.73;89.70
43147;BME280;28752;48.266;7.402;2023-02-01T00:59:51;100323.16;;;4.75;89.00
43147;BME280;28752;48.266;7.402;2023-02-01T01:02:16;100310.41;;;4.69;89.32
43147;BME280;28752;48.266;7.402;2023-02-01T01:04:41;100308.34;;;4.58;88.04
43147;BME280;28752;48.266;7.402;2023-02-01T01:07:07;100318.34;;;4.52;88.48
43147;BME280;28752;48.266;7.402;2023-02-01T01:09:32;100320.41;;;4.47;88.47
43147;BME280;28752;48.266;7.402;2023-02-01T01:11:58;100319.88;;;4.40;89.02
43147;BME280;28752;48.266;7.402;2023-02-01T01:14:30;100316.91;;;4.30;89.73
43147;BME280;28752;48.266;7.402;2023-02-01T01:16:56;100307.34;;;4.29;89.91
43147;BME280;28752;48.266;7.402;2023-02-01T01:19:22;100313.69;;;4.25;90.68
43147;BME280;28752;48.266;7.402;2023-02-01T01:21:47;100302.69;;;4.18;91.14
43147;BME280;28752;48.266;7.402;2023-02-01T01:24:12;100294.16;;;4.15;91.55
43147;BME280;28752;48.266;7.402;2023-02-01T01:26:38;100300.31;;;4.14;91.74
43147;BME280;28752;48.266;7.402;2023-02-01T01:29:03;100297.63;;;4.31;90.92
43147;BME280;28752;48.266;7.402;2023-02-01T01:31:29;100307.44;;;4.27;91.33
43147;BME280;28752;48.266;7.402;2023-02-01T01:33:56;100311.31;;;4.20;92.14
43147;BME280;28752;48.266;7.402;2023-02-01T01:36:23;100314.09;;;4.17;92.59
43147;BME280;28752;48.266;7.402;2023-02-01T01:38:48;100310.56;;;4.18;92.96
43147;BME280;28752;48.266;7.402;2023-02-01T01:41:24;100310.47;;;4.20;92.28
43147;BME280;28752;48.266;7.402;2023-02-01T01:46:18;100314.34;;;4.13;93.46
43147;BME280;28752;48.266;7.402;2023-02-01T01:48:45;100314.19;;;4.16;93.43
43147;BME280;28752;48.266;7.402;2023-02-01T01:51:12;100319.34;;;4.17;93.74
43147;BME280;28752;48.266;7.402;2023-02-01T01:53:45;100299.25;;;4.18;94.05
43147;BME280;28752;48.266;7.402;2023-02-01T01:56:12;100283.94;;;4.10;94.48
43147;BME280;28752;48.266;7.402;2023-02-01T01:58:38;100294.16;;;4.15;94.63
43147;BME280;28752;48.266;7.402;2023-02-01T02:01:04;100276.41;;;4.04;95.25
43147;BME280;28752;48.266;7.402;2023-02-01T02:03:42;100283.78;;;4.13;95.50
43147;BME280;28752;48.266;7.402;2023-02-01T02:08:47;100264.38;;;4.16;95.91
43147;BME280;28752;48.266;7.402;2023-02-01T02:11:16;100269.97;;;4.25;95.77
43147;BME280;28752;48.266;7.402;2023-02-01T02:13:43;100268.09;;;4.27;95.52
43147;BME280;28752;48.266;7.402;2023-02-01T02:25:02;100277.94;;;4.24;96.21
43147;BME280;28752;48.266;7.402;2023-02-01T02:32:52;100265.91;;;4.20;97.23
43147;BME280;28752;48.266;7.402;2023-02-01T02:35:26;100266.25;;;4.14;97.58
43147;BME280;28752;48.266;7.402;2023-02-01T02:38:16;100252.22;;;4.31;96.98
43147;BME280;28752;48.266;7.402;2023-02-01T02:40:51;100254.81;;;4.31;96.89
43147;BME280;28752;48.266;7.402;2023-02-01T02:43:35;100258.28;;;4.31;96.78
43147;BME280;28752;48.266;7.402;2023-02-01T02:46:21;100260.59;;;4.37;96.77
43147;BME280;28752;48.266;7.402;2023-02-01T02:49:12;100245.19;;;4.31;96.70
43147;BME280;28752;48.266;7.402;2023-02-01T02:51:50;100254.81;;;4.31;96.76
43147;BME280;28752;48.266;7.402;2023-02-01T02:54:40;100249.16;;;4.38;96.94
43147;BME280;28752;48.266;7.402;2023-02-01T02:57:38;100259.28;;;4.44;96.90
43147;BME280;28752;48.266;7.402;2023-02-01T03:00:30;100261.75;;;4.48;96.20
43147;BME280;28752;48.266;7.402;2023-02-01T03:03:15;100255.94;;;4.42;96.04
43147;BME280;28752;48.266;7.402;2023-02-01T03:05:59;100249.16;;;4.38;96.23
43147;BME280;28752;48.266;7.402;2023-02-01T03:08:27;100262.44;;;4.51;96.39
43147;BME280;28752;48.266;7.402;2023-02-01T03:10:57;100263.09;;;4.55;95.91
43147;BME280;28752;48.266;7.402;2023-02-01T03:13:57;100266.91;;;4.49;96.00
43147;BME280;28752;48.266;7.402;2023-02-01T03:16:43;100277.41;;;4.49;96.09
43147;BME280;28752;48.266;7.402;2023-02-01T03:19:31;100280.63;;;4.54;95.62
43147;BME280;28752;48.266;7.402;2023-02-01T03:22:02;100281.84;;;4.63;94.62
43147;BME280;28752;48.266;7.402;2023-02-01T03:24:33;100281.28;;;4.58;94.43
43147;BME280;28752;48.266;7.402;2023-02-01T03:27:08;100276.03;;;4.58;93.31
43147;BME280;28752;48.266;7.402;2023-02-01T03:30:19;100276.03;;;4.58;94.27
43147;BME280;28752;48.266;7.402;2023-02-01T03:32:48;100289.59;;;4.50;94.14
43147;BME280;28752;48.266;7.402;2023-02-01T03:36:03;100285.59;;;4.59;93.74
43147;BME280;28752;48.266;7.402;2023-02-01T03:43:42;100287.81;;;4.51;91.11
43147;BME280;28752;48.266;7.402;2023-02-01T03:46:13;100289.41;;;4.53;91.33
43147;BME280;28752;48.266;7.402;2023-02-01T03:48:43;100294.66;;;4.53;92.20
43147;BME280;28752;48.266;7.402;2023-02-01T03:51:10;100276.66;;;4.47;92.79
43147;BME280;28752;48.266;7.402;2023-02-01T03:53:35;100285.88;;;4.54;92.73
43147;BME280;28752;48.266;7.402;2023-02-01T03:56:01;100285.00;;;4.54;93.19
43147;BME280;28752;48.266;7.402;2023-02-01T03:58:27;100277.41;;;4.49;94.02
43147;BME280;28752;48.266;7.402;2023-02-01T04:00:55;100274.53;;;4.38;93.61
43147;BME280;28752;48.266;7.402;2023-02-01T04:03:21;100269.47;;;4.35;94.04
43147;BME280;28752;48.266;7.402;2023-02-01T04:05:48;100268.78;;;4.31;93.65
43147;BME280;28752;48.266;7.402;2023-02-01T04:08:13;100266.00;;;4.34;93.18
43147;BME280;28752;48.266;7.402;2023-02-01T04:10:38;100265.41;;;4.29;93.48
43147;BME280;28752;48.266;7.402;2023-02-01T04:13:03;100268.78;;;4.31;93.42
43147;BME280;28752;48.266;7.402;2023-02-01T04:15:29;100250.53;;;4.14;93.49
43147;BME280;28752;48.266;7.402;2023-02-01T04:17:54;100267.63;;;4.21;92.60
43147;BME280;28752;48.266;7.402;2023-02-01T04:20:20;100257.91;;;4.07;92.84
43147;BME280;28752;48.266;7.402;2023-02-01T04:22:45;100244.84;;;4.21;92.55
43147;BME280;28752;48.266;7.402;2023-02-01T04:25:10;100235.13;;;4.07;92.97
43147;BME280;28752;48.266;7.402;2023-02-01T04:27:36;100252.16;;;4.16;93.16
43147;BME280;28752;48.266;7.402;2023-02-01T04:30:03;100239.63;;;4.05;92.40
43147;BME280;28752;48.266;7.402;2023-02-01T04:32:28;100253.31;;;4.11;91.28
43147;BME280;28752;48.266;7.402;2023-02-01T04:34:54;100254.75;;;4.00;90.93
43147;BME280;28752;48.266;7.402;2023-02-01T04:37:19;100236.66;;;3.96;91.14
43147;BME280;28752;48.266;7.402;2023-02-01T04:39:44;100257.44;;;3.99;91.00
43147;BME280;28752;48.266;7.402;2023-02-01T04:42:10;100270.28;;;4.03;90.26
43147;BME280;28752;48.266;7.402;2023-02-01T04:44:35;100253.38;;;3.93;90.79
43147;BME280;28752;48.266;7.402;2023-02-01T04:47:02;100262.94;;;3.94;91.41
43147;BME280;28752;48.266;7.402;2023-02-01T04:49:27;100275.53;;;3.87;91.23
43147;BME280;28752;48.266;7.402;2023-02-01T04:51:53;100280.28;;;3.97;91.08
43147;BME280;28752;48.266;7.402;2023-02-01T04:54:18;100272.59;;;3.94;91.22
43147;BME280;28752;48.266;7.402;2023-02-01T04:56:43;100268.25;;;3.92;92.04
43147;BME280;28752;48.266;7.402;2023-02-01T04:59:11;100264.56;;;3.97;91.00
43147;BME280;28752;48.266;7.402;2023-02-01T05:01:36;100268.94;;;3.96;90.43
43147;BME280;28752;48.266;7.402;2023-02-01T05:04:02;100276.97;;;3.93;90.21
43147;BME280;28752;48.266;7.402;2023-02-01T05:06:27;100288.72;;;4.02;90.06
43147;BME280;28752;48.266;7.402;2023-02-01T05:08:53;100285.44;;;3.98;90.40
43147;BME280;28752;48.266;7.402;2023-02-01T05:11:18;100282.13;;;3.95;91.26
43147;BME280;28752;48.266;7.402;2023-02-01T05:14:02;100286.94;;;4.02;90.86
43147;BME280;28752;48.266;7.402;2023-02-01T05:16:27;100298.47;;;4.00;90.85
43147;BME280;28752;48.266;7.402;2023-02-01T05:18:53;100285.34;;;4.00;90.98
43147;BME280;28752;48.266;7.402;2023-02-01T05:21:19;100279.91;;;3.87;91.22
43147;BME280;28752;48.266;7.402;2023-02-01T05:23:44;100282.63;;;3.85;91.40
43147;BME280;28752;48.266;7.402;2023-02-01T05:26:28;100302.31;;;3.92;91.66
43147;BME280;28752;48.266;7.402;2023-02-01T05:28:54;100303.06;;;3.95;91.20
43147;BME280;28752;48.266;7.402;2023-02-01T05:31:19;100302.41;;;3.91;91.61
43147;BME280;28752;48.266;7.402;2023-02-01T05:33:45;100307.16;;;4.00;91.04
43147;BME280;28752;48.266;7.402;2023-02-01T05:36:10;100305.03;;;3.91;91.05
43147;BME280;28752;48.266;7.402;2023-02-01T05:38:35;100315.25;;;3.96;90.94
43147;BME280;28752;48.266;7.402;2023-02-01T05:41:01;100307.56;;;3.92;90.14
43147;BME280;28752;48.266;7.402;2023-02-01T05:43:26;100307.59;;;4.08;89.46
43147;BME280;28752;48.266;7.402;2023-02-01T05:45:52;100302.94;;;4.14;89.17
43147;BME280;28752;48.266;7.402;2023-02-01T05:48:18;100314.56;;;4.25;89.28
43147;BME280;28752;48.266;7.402;2023-02-01T05:50:44;100322.22;;;4.13;88.86
43147;BME280;28752;48.266;7.402;2023-02-01T05:53:09;100322.06;;;4.16;89.60
43147;BME280;28752;48.266;7.402;2023-02-01T05:55:36;100318.09;;;4.24;88.88
43147;BME280;28752;48.266;7.402;2023-02-01T05:58:02;100307.28;;;4.15;88.83
43147;BME280;28752;48.266;7.402;2023-02-01T06:00:27;100312.59;;;4.29;89.07
43147;BME280;28752;48.266;7.402;2023-02-01T06:02:53;100317.09;;;4.27;88.93
43147;BME280;28752;48.266;7.402;2023-02-01T06:05:18;100316.31;;;4.25;88.79
43147;BME280;28752;48.266;7.402;2023-02-01T06:07:43;100306.53;;;4.29;88.65
43147;BME280;28752;48.266;7.402;2023-02-01T06:10:10;100304.81;;;4.27;88.79
43147;BME280;28752;48.266;7.402;2023-02-01T06:12:35;100308.09;;;4.31;88.95
43147;BME280;28752;48.266;7.402;2023-02-01T06:15:00;100299.22;;;4.34;88.82
43147;BME280;28752;48.266;7.402;2023-02-01T06:17:26;100293.81;;;4.37;88.53
43147;BME280;28752;48.266;7.402;2023-02-01T06:19:51;100293.66;;;4.24;88.74
43147;BME280;28752;48.266;7.402;2023-02-01T06:22:17;100287.31;;;4.12;89.06
43147;BME280;28752;48.266;7.402;2023-02-01T06:24:42;100290.69;;;4.30;88.45
43147;BME280;28752;48.266;7.402;2023-02-01T06:27:08;100322.81;;;4.34;88.74
43147;BME280;28752;48.266;7.402;2023-02-01T06:29:34;100318.13;;;4.40;88.30
43147;BME280;28752;48.266;7.402;2023-02-01T06:32:00;100326.06;;;4.39;88.55
43147;BME280;28752;48.266;7.402;2023-02-01T06:34:25;100316.75;;;4.33;89.29
43147;BME280;28752;48.266;7.402;2023-02-01T06:36:50;100323.94;;;4.45;88.50
43147;BME280;28752;48.266;7.402;2023-02-01T06:39:16;100329.09;;;4.47;87.83
43147;BME280;28752;48.266;7.402;2023-02-01T06:41:45;100329.00;;;4.49;88.57
43147;BME280;28752;48.266;7.402;2023-02-01T06:44:10;100339.75;;;4.44;89.35
43147;BME280;28752;48.266;7.402;2023-02-01T06:46:36;100343.38;;;4.41;89.43
43147;BME280;28752;48.266;7.402;2023-02-01T06:49:01;100330.94;;;4.29;88.59
43147;BME280;28752;48.266;7.402;2023-02-01T06:51:27;100341.00;;;4.21;89.60
43147;BME280;28752;48.266;7.402;2023-02-01T06:53:54;100351.34;;;4.24;90.06
43147;BME280;28752;48.266;7.402;2023-02-01T06:56:19;100339.72;;;4.28;89.73
43147;BME280;28752;48.266;7.402;2023-02-01T06:58:45;100330.63;;;4.19;89.82
43147;BME280;28752;48.266;7.402;2023-02-01T07:01:12;100343.31;;;4.27;89.41
43147;BME280;28752;48.266;7.402;2023-02-01T07:03:38;100341.97;;;4.36;89.84
43147;BME280;28752;48.266;7.402;2023-02-01T07:06:04;100347.72;;;4.42;89.18
43147;BME280;28752;48.266;7.402;2023-02-01T07:08:31;100356.59;;;4.40;89.18
43147;BME280;28752;48.266;7.402;2023-02-01T07:10:57;100355.56;;;4.42;89.11
43147;BME280;28752;48.266;7.402;2023-02-01T07:13:25;100341.53;;;4.43;88.99
43147;BME280;28752;48.266;7.402;2023-02-01T07:15:51;100347.38;;;4.49;89.05
43147;BME280;28752;48.266;7.402;2023-02-01T07:18:16;100345.59;;;4.49;89.05
43147;BME280;28752;48.266;7.402;2023-02-01T07:20:42;100341.38;;;4.47;89.32
43147;BME280;28752;48.266;7.402;2023-02-01T07:23:09;100334.16;;;4.50;89.35
43147;BME280;28752;48.266;7.402;2023-02-01T07:25:35;100342.88;;;4.51;88.90
43147;BME280;28752;48.266;7.402;2023-02-01T07:28:00;100338.06;;;4.43;88.55
43147;BME280;28752;48.266;7.402;2023-02-01T07:30:26;100338.91;;;4.43;88.74
43147;BME280;28752;48.266;7.402;2023-02-01T07:32:51;100323.94;;;4.45;88.27
43147;BME280;28752;48.266;7.402;2023-02-01T07:35:16;100325.63;;;4.47;88.75
43147;BME280;28752;48.266;7.402;2023-02-01T07:37:42;100336.78;;;4.50;88.62
43147;BME280;28752;48.266;7.402;2023-02-01T07:40:08;100335.09;;;4.49;88.23
43147;BME280;28752;48.266;7.402;2023-02-01T07:42:34;100321.06;;;4.50;87.62
43147;BME280;28752;48.266;7.402;2023-02-01T07:44:59;100328.84;;;4.52;87.90
43147;BME280;28752;48.266;7.402;2023-02-01T07:47:24;100331.38;;;4.53;87.99
43147;BME280;28752;48.266;7.402;2023-02-01T07:49:50;100327.31;;;4.63;86.64
43147;BME280;28752;48.266;7.402;2023-02-01T07:52:15;100327.53;;;4.75;85.91
43147;BME280;28752;48.266;7.402;2023-02-01T07:54:41;100346.34;;;4.83;86.06
43147;BME280;28752;48.266;7.402;2023-02-01T07:57:06;100346.91;;;4.88;86.31
43147;BME280;28752;48.266;7.402;2023-02-01T07:59:33;100360.88;;;4.89;85.88
43147;BME280;28752;48.266;7.402;2023-02-01T08:01:59;100358.50;;;4.84;86.39
43147;BME280;28752;48.266;7.402;2023-02-01T08:04:24;100352.44;;;4.84;86.01
43147;BME280;28752;48.266;7.402;2023-02-01T08:06:50;100356.41;;;4.91;86.25
43147;BME280;28752;48.266;7.402;2023-02-01T08:09:15;100349.53;;;4.88;86.21
43147;BME280;28752;48.266;7.402;2023-02-01T08:11:40;100373.41;;;5.00;86.36
43147;BME280;28752;48.266;7.402;2023-02-01T08:14:06;100372.06;;;4.92;85.83
43147;BME280;28752;48.266;7.402;2023-02-01T08:16:32;100359.97;;;4.74;86.24
43147;BME280;28752;48.266;7.402;2023-02-01T08:19:00;100382.22;;;4.83;86.74
43147;BME280;28752;48.266;7.402;2023-02-01T08:21:27;100389.91;;;4.86;86.01
43147;BME280;28752;48.266;7.402;2023-02-01T08:24:03;100393.81;;;4.94;86.22
43147;BME280;28752;48.266;7.402;2023-02-01T08:26:28;100400.84;;;4.78;87.41
43147;BME280;28752;48.266;7.402;2023-02-01T08:28:57;100411.41;;;4.76;88.08
43147;BME280;28752;48.266;7.402;2023-02-01T08:31:24;100413.63;;;5.00;87.72
43147;BME280;28752;48.266;7.402;2023-02-01T08:33:53;100405.31;;;5.08;87.18
43147;BME280;28752;48.266;7.402;2023-02-01T08:36:19;100406.41;;;5.04;87.97
43147;BME280;28752;48.266;7.402;2023-02-01T08:38:45;100410.72;;;5.21;86.44
43147;BME280;28752;48.266;7.402;2023-02-01T08:41:13;100404.03;;;5.15;87.31
43147;BME280;28752;48.266;7.402;2023-02-01T08:43:40;100393.09;;;5.23;87.09
43147;BME280;28752;48.266;7.402;2023-02-01T08:46:07;100383.13;;;5.13;86.42
43147;BME280;28752;48.266;7.402;2023-02-01T08:48:33;100391.03;;;5.28;86.44
43147;BME280;28752;48.266;7.402;2023-02-01T08:51:10;100390.81;;;5.16;86.39
43147;BME280;28752;48.266;7.402;2023-02-01T08:53:37;100383.44;;;5.23;86.06
43147;BME280;28752;48.266;7.402;2023-02-01T08:56:03;100407.63;;;5.44;85.73
43147;BME280;28752;48.266;7.402;2023-02-01T08:58:28;100403.59;;;5.23;86.92
43147;BME280;28752;48.266;7.402;2023-02-01T09:00:54;100403.44;;;5.26;87.54
43147;BME280;28752;48.266;7.402;2023-02-01T09:03:20;100391.91;;;5.28;87.53
43147;BME280;28752;48.266;7.402;2023-02-01T09:05:45;100392.25;;;5.22;88.40
43147;BME280;28752;48.266;7.402;2023-02-01T09:08:11;100397.81;;;5.32;88.63
43147;BME280;28752;48.266;7.402;2023-02-01T09:10:40;100363.78;;;5.14;88.10
43147;BME280;28752;48.266;7.402;2023-02-01T09:13:06;100388.06;;;5.34;87.95
43147;BME280;28752;48.266;7.402;2023-02-01T09:15:33;100391.28;;;5.39;88.37
43147;BME280;28752;48.266;7.402;2023-02-01T09:17:58;100386.88;;;5.40;88.65
43147;BME280;28752;48.266;7.402;2023-02-01T09:20:25;100364.84;;;5.12;88.32
43147;BME280;28752;48.266;7.402;2023-02-01T09:22:51;100382.72;;;5.36;88.43
43147;BME280;28752;48.266;7.402;2023-02-01T09:25:17;100386.59;;;5.44;88.47
43147;BME280;28752;48.266;7.402;2023-02-01T09:27:42;100368.84;;;5.33;88.47
43147;BME280;28752;48.266;7.402;2023-02-01T09:30:08;100366.84;;;5.53;87.68
43147;BME280;28752;48.266;7.402;2023-02-01T09:32:34;100364.03;;;5.56;87.82
43147;BME280;28752;48.266;7.402;2023-02-01T09:35:00;100379.97;;;5.67;88.02
43147;BME280;28752;48.266;7.402;2023-02-01T09:37:25;100389.34;;;5.57;88.28
43147;BME280;28752;48.266;7.402;2023-02-01T09:39:51;100383.34;;;5.55;88.21
43147;BME280;28752;48.266;7.402;2023-02-01T09:42:19;100397.34;;;5.70;87.01
43147;BME280;28752;48.266;7.402;2023-02-01T09:47:47;100404.94;;;6.05;85.82
43147;BME280;28752;48.266;7.402;2023-02-01T09:50:18;100407.66;;;6.18;84.52
43147;BME280;28752;48.266;7.402;2023-02-01T09:55:23;100409.06;;;6.52;83.49
43147;BME280;28752;48.266;7.402;2023-02-01T09:58:01;100406.03;;;6.58;83.16
43147;BME280;28752;48.266;7.402;2023-02-01T10:00:30;100422.75;;;6.72;82.70
43147;BME280;28752;48.266;7.402;2023-02-01T10:02:58;100430.66;;;6.86;79.83
43147;BME280;28752;48.266;7.402;2023-02-01T10:22:41;100423.44;;;7.83;79.40
43147;BME280;28752;48.266;7.402;2023-02-01T10:25:16;100428.63;;;8.10;75.01
43147;BME280;28752;48.266;7.402;2023-02-01T10:27:44;100421.75;;;8.33;73.35
43147;BME280;28752;48.266;7.402;2023-02-01T10:32:40;100420.16;;;8.69;68.21
43147;BME280;28752;48.266;7.402;2023-02-01T10:35:18;100411.00;;;8.86;67.29
43147;BME280;28752;48.266;7.402;2023-02-01T10:37:47;100409.25;;;9.11;66.39
43147;BME280;28752;48.266;7.402;2023-02-01T10:40:17;100409.84;;;9.15;65.04
43147;BME280;28752;48.266;7.402;2023-02-01T10:42:43;100405.50;;;9.14;64.42
43147;BME280;28752;48.266;7.402;2023-02-01T10:45:14;100404.06;;;9.34;63.69
43147;BME280;28752;48.266;7.402;2023-02-01T10:47:41;100413.09;;;9.18;63.17
43147;BME280;28752;48.266;7.402;2023-02-01T10:53:06;100396.97;;;9.34;59.89
43147;BME280;28752;48.266;7.402;2023-02-01T10:55:46;100400.63;;;9.56;60.93
43147;BME280;28752;48.266;7.402;2023-02-01T10:58:17;100396.75;;;9.49;60.29
43147;BME280;28752;48.266;7.402;2023-02-01T11:00:54;100389.13;;;9.57;58.61
43147;BME280;28752;48.266;7.402;2023-02-01T11:03:34;100399.31;;;9.26;58.30
43147;BME280;28752;48.266;7.402;2023-02-01T11:06:04;100397.09;;;8.84;58.43
43147;BME280;28752;48.266;7.402;2023-02-01T11:08:41;100404.94;;;8.73;59.39
43147;BME280;28752;48.266;7.402;2023-02-01T11:11:07;100392.38;;;8.64;59.55
43147;BME280;28752;48.266;7.402;2023-02-01T11:13:37;100395.47;;;8.58;61.09
43147;BME280;28752;48.266;7.402;2023-02-01T11:16:04;100392.75;;;8.46;60.92
43147;BME280;28752;48.266;7.402;2023-02-01T11:18:35;100391.28;;;8.29;61.15
43147;BME280;28752;48.266;7.402;2023-02-01T11:21:02;100374.00;;;8.12;60.89
43147;BME280;28752;48.266;7.402;2023-02-01T11:23:29;100387.25;;;8.24;60.33
43147;BME280;28752;48.266;7.402;2023-02-01T11:26:00;100361.41;;;8.16;61.03
43147;BME280;28752;48.266;7.402;2023-02-01T11:28:30;100377.75;;;8.21;60.76
43147;BME280;28752;48.266;7.402;2023-02-01T11:31:00;100366.25;;;8.22;60.43
43147;BME280;28752;48.266;7.402;2023-02-01T11:33:30;100355.09;;;8.18;60.56
43147;BME280;28752;48.266;7.402;2023-02-01T11:35:59;100361.53;;;8.14;60.47
43147;BME280;28752;48.266;7.402;2023-02-01T11:38:31;100362.56;;;8.12;61.04
43147;BME280;28752;48.266;7.402;2023-02-01T11:41:23;100376.53;;;8.14;61.44
43147;BME280;28752;48.266;7.402;2023-02-01T11:43:58;100373.03;;;8.00;60.50
43147;BME280;28752;48.266;7.402;2023-02-01T11:46:29;100362.38;;;7.89;61.61
43147;BME280;28752;48.266;7.402;2023-02-01T11:48:56;100352.81;;;7.88;60.96
43147;BME280;28752;48.266;7.402;2023-02-01T11:54:33;100358.59;;;8.06;61.35
43147;BME280;28752;48.266;7.402;2023-02-01T12:00:14;100349.31;;;8.00;59.58
43147;BME280;28752;48.266;7.402;2023-02-01T12:16:23;100322.94;;;7.75;59.00
43147;BME280;28752;48.266;7.402;2023-02-01T12:24:45;100343.50;;;7.82;58.30
43147;BME280;28752;48.266;7.402;2023-02-01T12:38:20;100327.22;;;8.01;59.35
43147;BME280;28752;48.266;7.402;2023-02-01T12:43:25;100311.56;;;7.87;59.14
43147;BME280;28752;48.266;7.402;2023-02-01T12:46:04;100311.56;;;7.87;58.88
43147;BME280;28752;48.266;7.402;2023-02-01T12:48:35;100294.34;;;7.81;57.71
43147;BME280;28752;48.266;7.402;2023-02-01T12:51:08;100290.75;;;8.08;58.47
43147;BME280;28752;48.266;7.402;2023-02-01T12:56:12;100286.50;;;8.06;58.45
43147;BME280;28752;48.266;7.402;2023-02-01T12:58:43;100281.56;;;8.14;58.02
43147;BME280;28752;48.266;7.402;2023-02-01T13:01:15;100299.25;;;8.12;57.68
43147;BME280;28752;48.266;7.402;2023-02-01T13:07:02;100295.97;;;8.21;56.94
43147;BME280;28752;48.266;7.402;2023-02-01T13:09:44;100286.72;;;8.03;56.57
43147;BME280;28752;48.266;7.402;2023-02-01T13:12:26;100280.53;;;8.04;57.59
43147;BME280;28752;48.266;7.402;2023-02-01T13:15:05;100285.34;;;8.10;56.74
43147;BME280;28752;48.266;7.402;2023-02-01T13:17:37;100282.50;;;8.13;57.02
43147;BME280;28752;48.266;7.402;2023-02-01T13:20:15;100278.75;;;8.28;56.61
43147;BME280;28752;48.266;7.402;2023-02-01T13:22:46;100280.69;;;8.26;55.74
43147;BME280;28752;48.266;7.402;2023-02-01T13:27:45;100285.41;;;8.21;55.54
43147;BME280;28752;48.266;7.402;2023-02-01T13:39:43;100287.47;;;8.05;56.26
43147;BME280;28752;48.266;7.402;2023-02-01T13:42:23;100289.47;;;8.01;56.32
43147;BME280;28752;48.266;7.402;2023-02-01T13:44:55;100281.56;;;8.01;55.83
43147;BME280;28752;48.266;7.402;2023-02-01T13:47:26;100300.03;;;8.01;57.15
43147;BME280;28752;48.266;7.402;2023-02-01T13:49:55;100298.75;;;7.94;57.03
43147;BME280;28752;48.266;7.402;2023-02-01T13:52:43;100301.72;;;7.89;57.21
43147;BME280;28752;48.266;7.402;2023-02-01T13:57:49;100306.06;;;7.90;58.08
43147;BME280;28752;48.266;7.402;2023-02-01T14:00:33;100316.72;;;7.89;58.38
43147;BME280;28752;48.266;7.402;2023-02-01T14:11:02;100320.31;;;7.49;58.86
43147;BME280;28752;48.266;7.402;2023-02-01T14:13:39;100319.03;;;7.42;59.78
43147;BME280;28752;48.266;7.402;2023-02-01T14:21:32;100320.06;;;7.26;61.44
43147;BME280;28752;48.266;7.402;2023-02-01T14:26:45;100312.16;;;7.26;61.02
43147;BME280;28752;48.266;7.402;2023-02-01T14:37:00;100304.81;;;7.44;61.48
43147;BME280;28752;48.266;7.402;2023-02-01T14:39:30;100303.31;;;7.40;61.32
43147;BME280;28752;48.266;7.402;2023-02-01T14:41:59;100299.00;;;7.26;61.80
43147;BME280;28752;48.266;7.402;2023-02-01T14:44:32;100316.50;;;7.40;61.86
43147;BME280;28752;48.266;7.402;2023-02-01T14:57:57;100305.72;;;7.18;65.66
43147;BME280;28752;48.266;7.402;2023-02-01T15:00:27;100300.53;;;7.16;65.26
43147;BME280;28752;48.266;7.402;2023-02-01T15:02:55;100305.81;;;7.16;65.48
43147;BME280;28752;48.266;7.402;2023-02-01T15:05:29;100319.13;;;7.27;65.20
43147;BME280;28752;48.266;7.402;2023-02-01T15:08:03;100317.00;;;7.33;65.01
43147;BME280;28752;48.266;7.402;2023-02-01T15:10:31;100313.34;;;7.35;64.81
43147;BME280;28752;48.266;7.402;2023-02-01T15:12:58;100315.31;;;7.32;65.06
43147;BME280;28752;48.266;7.402;2023-02-01T15:15:24;100320.81;;;7.41;64.75
43147;BME280;28752;48.266;7.402;2023-02-01T15:17:54;100323.47;;;7.41;64.74
43147;BME280;28752;48.266;7.402;2023-02-01T15:20:26;100323.88;;;7.35;65.02
43147;BME280;28752;48.266;7.402;2023-02-01T15:23:05;100325.13;;;7.29;65.38
43147;BME280;28752;48.266;7.402;2023-02-01T15:25:36;100329.44;;;7.31;64.91
43147;BME280;28752;48.266;7.402;2023-02-01T15:28:03;100324.72;;;7.36;64.08
43147;BME280;28752;48.266;7.402;2023-02-01T15:30:33;100327.84;;;7.28;64.14
43147;BME280;28752;48.266;7.402;2023-02-01T15:41:14;100341.28;;;7.51;63.86
43147;BME280;28752;48.266;7.402;2023-02-01T15:46:31;100337.78;;;7.37;63.67
43147;BME280;28752;48.266;7.402;2023-02-01T15:48:58;100344.84;;;7.37;64.03